Time;durP1;ratioP1;P1;durP2;ratioP2;P2;SDS_P1;SDS_P2;PMS_P1;PMS_P2;Temp;Humidity;BMP_temperature;BMP_pressure;BME280_temperature;BME280_humidity;BME280_pressure;Samples;Min_cycle;Max_cycle;Signal;HPM_P1;HPM_P2
2021/05/04 00:00:41;;;;;;;5.55;3.30;;;;;;;5.77;61.40;99273.72;129724;1102;22532;-65
2021/05/04 00:03:09;;;;;;;7.95;3.25;;;;;;;5.73;61.75;99264.45;129710;1101;22707;-65
2021/05/04 00:05:37;;;;;;;7.47;3.03;;;;;;;5.73;62.09;99275.27;129722;1104;22659;-65
2021/05/04 00:08:05;;;;;;;12.95;5.95;;;;;;;5.72;61.53;99268.20;129707;1104;22704;-65
2021/05/04 00:10:33;;;;;;;7.00;3.10;;;;;;;5.73;61.72;99274.44;129718;1101;22538;-65
2021/05/04 00:13:03;;;;;;;7.10;3.35;;;;;;;5.71;61.92;99274.67;129685;1104;22638;-65
2021/05/04 00:15:31;;;;;;;9.40;4.05;;;;;;;5.69;62.20;99283.00;129696;1104;22631;-65
2021/05/04 00:17:59;;;;;;;8.85;4.45;;;;;;;5.67;62.01;99278.88;129734;1104;22627;-66
2021/05/04 00:20:26;;;;;;;7.70;3.55;;;;;;;5.64;62.10;99287.45;129649;1101;22554;-67
2021/05/04 00:22:55;;;;;;;15.35;6.75;;;;;;;5.64;62.52;99282.05;129740;1101;22671;-65
2021/05/04 00:25:23;;;;;;;8.33;4.33;;;;;;;5.61;62.47;99286.06;129622;1104;22598;-65
2021/05/04 00:27:51;;;;;;;6.73;2.83;;;;;;;5.61;62.54;99298.75;129721;1101;23181;-66
2021/05/04 00:30:18;;;;;;;4.00;2.67;;;;;;;5.60;62.81;99295.22;129683;1102;22572;-65
2021/05/04 00:32:46;;;;;;;4.80;2.85;;;;;;;5.58;63.14;99294.63;129712;1102;22710;-65
2021/05/04 00:35:14;;;;;;;4.40;2.65;;;;;;;5.57;62.85;99300.25;129694;1104;24007;-65
2021/05/04 00:37:42;;;;;;;4.55;2.80;;;;;;;5.54;63.22;99301.53;129699;1104;23803;-65
2021/05/04 00:40:11;;;;;;;17.90;7.60;;;;;;;5.54;62.72;99295.30;129705;1104;22585;-65
2021/05/04 00:42:38;;;;;;;7.20;4.10;;;;;;;5.52;63.30;99310.92;129718;1104;23032;-65
2021/05/04 00:45:07;;;;;;;7.70;3.60;;;;;;;5.50;63.17;99302.21;129685;1101;22533;-66
2021/05/04 00:47:35;;;;;;;11.07;4.63;;;;;;;5.49;63.01;99301.39;129663;1104;22682;-66
2021/05/04 00:50:04;;;;;;;7.95;3.85;;;;;;;5.49;63.41;99308.67;129653;1102;23288;-65
2021/05/04 00:52:32;;;;;;;11.95;5.50;;;;;;;5.45;63.17;99297.52;129711;1104;23274;-65
2021/05/04 00:55:00;;;;;;;9.05;5.20;;;;;;;5.43;63.59;99293.40;129685;1104;22574;-65
2021/05/04 00:57:28;;;;;;;9.05;3.65;;;;;;;5.42;63.44;99302.55;129688;1104;23253;-65
2021/05/04 00:59:56;;;;;;;8.77;3.77;;;;;;;5.44;63.92;99300.45;129704;1104;22646;-65
2021/05/04 01:02:23;;;;;;;9.35;4.40;;;;;;;5.44;63.55;99303.16;129643;1104;22542;-66
2021/05/04 01:04:52;;;;;;;14.60;6.47;;;;;;;5.46;63.96;99290.24;129709;1104;22558;-67
2021/05/04 01:07:19;;;;;;;13.20;6.30;;;;;;;5.48;64.43;99294.34;129652;1103;22557;-67
2021/05/04 01:09:48;;;;;;;16.83;7.33;;;;;;;5.51;64.28;99288.48;129704;1104;23684;-67
2021/05/04 01:12:15;;;;;;;9.55;3.90;;;;;;;5.52;64.03;99294.70;129696;1104;22563;-67
2021/05/04 01:14:43;;;;;;;12.00;5.13;;;;;;;5.53;64.31;99288.25;129701;1102;22540;-68
2021/05/04 01:17:11;;;;;;;7.85;4.15;;;;;;;5.55;64.23;99296.95;125755;1104;22758;-66
2021/05/04 01:19:40;;;;;;;7.40;3.90;;;;;;;5.55;63.81;99288.84;129819;1101;23316;-67
2021/05/04 01:22:08;;;;;;;10.73;4.47;;;;;;;5.53;64.24;99280.14;129665;1101;22578;-67
2021/05/04 01:24:36;;;;;;;9.23;4.93;;;;;;;5.52;63.75;99278.49;129705;1104;23002;-67
2021/05/04 01:27:04;;;;;;;8.10;3.63;;;;;;;5.51;64.09;99284.95;129668;1104;22531;-67
2021/05/04 01:29:32;;;;;;;8.73;4.30;;;;;;;5.47;64.16;99281.91;129712;1101;22596;-67
2021/05/04 01:31:59;;;;;;;13.43;5.50;;;;;;;5.45;63.90;99288.59;129676;1104;22563;-67
2021/05/04 01:34:27;;;;;;;11.13;4.67;;;;;;;5.43;64.39;99285.30;129720;1104;22728;-67
2021/05/04 01:36:55;;;;;;;12.57;4.90;;;;;;;5.41;64.42;99287.39;129622;1104;22599;-68
2021/05/04 01:39:28;;;;;;;11.40;5.95;;;;;;;5.40;64.47;99294.67;129741;1103;23747;-68
2021/05/04 01:41:56;;;;;;;13.55;5.95;;;;;;;5.39;64.50;99294.91;129668;1104;22694;-68
2021/05/04 01:44:24;;;;;;;10.15;4.55;;;;;;;5.39;64.84;99303.01;129696;1102;23258;-67
2021/05/04 01:46:52;;;;;;;12.40;5.65;;;;;;;5.37;64.30;99305.94;129694;1104;22650;-68
2021/05/04 01:49:20;;;;;;;8.40;4.43;;;;;;;5.34;64.90;99299.11;129699;1104;22571;-67
2021/05/04 01:51:48;;;;;;;8.00;4.05;;;;;;;5.33;64.41;99296.66;129719;1101;22565;-67
2021/05/04 01:54:16;;;;;;;8.65;3.90;;;;;;;5.32;64.36;99303.12;129703;1101;22679;-67
2021/05/04 01:56:44;;;;;;;7.50;3.77;;;;;;;5.30;65.00;99300.64;129716;1104;23298;-67
2021/05/04 01:59:12;;;;;;;5.90;3.65;;;;;;;5.29;64.94;99301.69;129748;1104;22568;-67
2021/05/04 02:01:40;;;;;;;9.20;4.55;;;;;;;5.29;65.44;99301.69;129745;1104;23461;-67
2021/05/04 02:04:08;;;;;;;7.30;4.35;;;;;;;5.31;65.47;99302.30;129654;1102;22588;-67
2021/05/04 02:06:37;;;;;;;5.30;3.10;;;;;;;5.34;65.61;99309.91;129723;1104;23370;-67
2021/05/04 02:09:05;;;;;;;9.00;3.47;;;;;;;5.35;65.40;99310.73;129675;1103;22558;-67
2021/05/04 02:11:33;;;;;;;4.80;3.10;;;;;;;5.37;65.24;99308.63;129680;1104;22576;-67
2021/05/04 02:14:01;;;;;;;4.55;2.75;;;;;;;5.37;65.91;99311.34;129690;1103;22580;-67
2021/05/04 02:16:29;;;;;;;6.25;3.90;;;;;;;5.39;65.73;99314.64;129758;1101;23442;-67
2021/05/04 02:18:57;;;;;;;7.17;3.73;;;;;;;5.40;65.48;99301.95;129680;1104;22739;-67
2021/05/04 02:21:25;;;;;;;7.80;4.50;;;;;;;5.41;65.73;99309.01;129702;1104;23196;-68
2021/05/04 02:23:53;;;;;;;7.00;4.10;;;;;;;5.39;65.63;99298.43;129653;1104;22567;-67
2021/05/04 02:26:21;;;;;;;6.85;4.30;;;;;;;5.39;65.39;99303.83;129704;1103;22609;-68
2021/05/04 02:28:49;;;;;;;6.00;3.75;;;;;;;5.37;65.58;99305.94;129684;1101;22691;-67
2021/05/04 02:31:17;;;;;;;5.30;3.65;;;;;;;5.36;65.99;99306.16;129711;1103;22613;-66
2021/05/04 02:33:45;;;;;;;4.30;3.05;;;;;;;5.34;66.46;99312.61;129633;1104;23717;-66
2021/05/04 02:36:13;;;;;;;6.25;3.40;;;;;;;5.33;66.06;99302.89;129710;1101;22654;-66
2021/05/04 02:38:41;;;;;;;6.50;3.90;;;;;;;5.32;65.91;99312.05;129727;1102;24559;-66
2021/05/04 02:41:09;;;;;;;4.80;3.35;;;;;;;5.29;65.85;99309.80;129647;1101;22613;-66
2021/05/04 02:43:37;;;;;;;4.90;3.30;;;;;;;5.31;66.56;99314.97;129691;1104;22776;-67
2021/05/04 02:46:06;;;;;;;3.85;3.10;;;;;;;5.31;66.33;99318.50;127992;1103;22867;-66
2021/05/04 02:48:38;;;;;;;4.47;2.83;;;;;;;5.29;66.79;99307.09;125162;1101;22776;-65
2021/05/04 02:51:07;;;;;;;5.25;3.00;;;;;;;5.28;66.20;99310.02;129626;1104;22639;-66
2021/05/04 02:53:36;;;;;;;4.65;3.00;;;;;;;5.27;66.55;99320.00;129684;1103;22588;-66
2021/05/04 02:56:04;;;;;;;4.27;3.10;;;;;;;5.25;66.33;99316.70;129697;1104;22773;-66
2021/05/04 02:58:32;;;;;;;4.80;3.05;;;;;;;5.26;66.74;99315.65;129703;1103;22587;-66
2021/05/04 03:01:00;;;;;;;5.55;3.05;;;;;;;5.29;66.97;99314.38;129665;1103;22582;-66
2021/05/04 03:03:28;;;;;;;5.05;3.20;;;;;;;5.32;66.62;99317.45;129716;1103;22619;-66
2021/05/04 03:05:56;;;;;;;6.00;3.55;;;;;;;5.37;67.05;99318.62;129708;1104;23198;-66
2021/05/04 03:08:24;;;;;;;5.20;3.25;;;;;;;5.38;66.56;99322.97;129659;1104;22653;-66
2021/05/04 03:10:52;;;;;;;3.93;2.87;;;;;;;5.37;67.19;99319.44;129693;1101;22577;-66
2021/05/04 03:13:24;;;;;;;5.55;3.20;;;;;;;5.43;67.09;99320.41;129768;1101;23355;-66
2021/05/04 03:15:52;;;;;;;5.10;3.50;;;;;;;5.49;66.99;99333.81;129716;1103;22534;-66
2021/05/04 03:18:20;;;;;;;8.10;4.80;;;;;;;5.54;67.03;99325.03;129717;1104;22577;-67
2021/05/04 03:20:52;;;;;;;5.15;3.20;;;;;;;5.57;66.89;99332.68;129656;1104;23522;-67
2021/05/04 03:23:20;;;;;;;4.80;3.45;;;;;;;5.60;67.07;99332.23;129736;1101;22526;-67
2021/05/04 03:25:49;;;;;;;6.05;4.05;;;;;;;5.62;66.89;99333.65;128488;1101;22752;-66
2021/05/04 03:28:17;;;;;;;5.03;3.20;;;;;;;5.66;66.88;99333.98;129705;1103;22568;-67
2021/05/04 03:30:45;;;;;;;5.25;3.80;;;;;;;5.69;66.39;99339.77;129654;1104;22668;-67
2021/05/04 03:33:14;;;;;;;7.43;3.43;;;;;;;5.71;66.64;99342.24;129657;1104;22696;-67
2021/05/04 03:35:43;;;;;;;5.53;3.70;;;;;;;5.74;67.08;99341.78;129706;1104;23579;-66
2021/05/04 03:38:11;;;;;;;6.47;3.67;;;;;;;5.77;66.26;99349.41;129690;1103;22606;-65
2021/05/04 03:40:39;;;;;;;8.80;4.07;;;;;;;5.81;66.32;99347.08;129730;1104;22709;-65
2021/05/04 03:43:07;;;;;;;5.90;3.90;;;;;;;5.85;66.69;99345.56;129695;1104;22618;-68
2021/05/04 03:45:35;;;;;;;6.07;4.23;;;;;;;5.89;66.63;99353.02;129710;1104;23801;-68
2021/05/04 03:48:03;;;;;;;8.40;3.40;;;;;;;5.96;66.54;99356.44;129671;1103;22605;-68
2021/05/04 03:50:32;;;;;;;4.95;3.05;;;;;;;6.04;66.88;99355.29;129688;1104;22652;-68
2021/05/04 03:53:01;;;;;;;6.10;3.50;;;;;;;6.08;66.09;99358.33;129656;1102;22629;-68
2021/05/04 03:55:28;;;;;;;6.90;4.20;;;;;;;6.12;66.27;99357.64;129052;1103;22816;-67
2021/05/04 03:57:57;;;;;;;8.00;4.70;;;;;;;6.19;65.99;99352.14;129624;1104;23164;-68
2021/05/04 04:00:24;;;;;;;7.90;4.75;;;;;;;6.25;66.02;99360.13;129702;1102;22555;-67
2021/05/04 04:02:52;;;;;;;10.75;4.30;;;;;;;6.30;66.39;99357.55;129669;1104;22590;-67
2021/05/04 04:05:20;;;;;;;9.57;4.27;;;;;;;6.35;65.77;99354.95;129737;1101;23324;-67
2021/05/04 04:07:49;;;;;;;6.85;3.90;;;;;;;6.41;65.82;99355.08;129692;1104;22695;-67
2021/05/04 04:10:18;;;;;;;6.67;4.03;;;;;;;6.43;66.13;99352.96;129735;1104;22564;-66
2021/05/04 04:12:54;;;;;;;7.80;4.80;;;;;;;6.47;65.12;99352.27;129625;1104;23886;-66
2021/05/04 04:15:22;;;;;;;7.00;3.93;;;;;;;6.53;64.97;99354.02;129740;1104;23241;-66
2021/05/04 04:17:49;;;;;;;7.75;3.60;;;;;;;6.58;64.96;99348.72;129644;1104;22581;-66
2021/05/04 04:20:17;;;;;;;6.10;3.87;;;;;;;6.66;65.56;99356.47;129689;1104;22737;-66
2021/05/04 04:22:45;;;;;;;5.90;4.10;;;;;;;6.74;64.86;99353.42;129699;1101;22543;-66
2021/05/04 04:25:13;;;;;;;4.80;3.50;;;;;;;6.85;65.40;99359.05;129586;1102;22609;-66
2021/05/04 04:27:41;;;;;;;6.10;3.90;;;;;;;6.94;64.22;99347.60;125181;1103;22795;-66
2021/05/04 04:30:10;;;;;;;7.75;4.05;;;;;;;7.01;64.55;99352.91;129666;1104;23957;-66
2021/05/04 04:32:38;;;;;;;10.70;4.00;;;;;;;7.08;64.14;99342.74;129717;1104;23707;-66
2021/05/04 04:35:06;;;;;;;6.20;4.20;;;;;;;7.13;64.46;99356.41;129652;1102;22529;-65
2021/05/04 04:37:34;;;;;;;10.80;4.20;;;;;;;7.23;63.79;99353.06;129729;1101;23736;-65
2021/05/04 04:40:06;;;;;;;8.50;4.10;;;;;;;7.32;63.64;99349.76;129675;1104;23258;-65
2021/05/04 04:42:34;;;;;;;5.90;3.90;;;;;;;7.42;64.36;99354.55;129755;1104;23744;-65
2021/05/04 04:45:03;;;;;;;7.25;4.50;;;;;;;7.54;63.31;99351.78;129638;1102;22555;-64
2021/05/04 04:47:31;;;;;;;8.10;4.40;;;;;;;7.63;62.52;99358.48;129676;1104;22553;-65
2021/05/04 04:49:59;;;;;;;9.25;5.25;;;;;;;7.69;63.46;99360.20;129647;1101;22490;-66
2021/05/04 04:52:27;;;;;;;6.55;4.10;;;;;;;7.76;62.21;99353.58;129726;1104;22558;-66
2021/05/04 04:54:55;;;;;;;7.30;4.40;;;;;;;7.85;62.61;99359.41;129643;1102;22648;-66
2021/05/04 04:57:23;;;;;;;6.60;4.13;;;;;;;7.92;62.76;99360.09;129691;1104;23992;-66
2021/05/04 04:59:50;;;;;;;7.05;4.25;;;;;;;8.06;61.97;99366.86;129666;1104;22568;-66
2021/05/04 05:02:18;;;;;;;5.25;3.90;;;;;;;8.20;62.17;99366.53;129686;1104;24242;-68
2021/05/04 05:04:48;;;;;;;6.65;5.40;;;;;;;8.30;61.50;99363.98;129687;1103;22561;-68
2021/05/04 05:07:17;;;;;;;6.15;4.10;;;;;;;8.33;61.48;99371.66;129740;1101;23522;-68
2021/05/04 05:09:45;;;;;;;7.40;4.57;;;;;;;8.26;60.91;99370.95;129682;1103;23630;-68
2021/05/04 05:12:14;;;;;;;7.05;4.15;;;;;;;8.22;61.64;99370.66;129700;1102;22549;-68
2021/05/04 05:14:42;;;;;;;6.93;4.50;;;;;;;8.21;61.44;99371.72;129673;1103;22593;-68
2021/05/04 05:17:11;;;;;;;8.55;4.35;;;;;;;8.25;61.86;99372.02;129642;1104;22618;-68
2021/05/04 05:19:40;;;;;;;11.50;4.30;;;;;;;8.30;61.10;99378.37;129690;1104;22682;-68
2021/05/04 05:22:09;;;;;;;5.05;4.00;;;;;;;8.31;61.41;99376.48;129693;1104;22562;-68
2021/05/04 05:24:39;;;;;;;6.00;3.67;;;;;;;8.32;61.30;99389.84;129670;1104;22566;-68
2021/05/04 05:27:07;;;;;;;7.05;4.30;;;;;;;8.35;61.57;99380.38;129626;1104;22677;-68
2021/05/04 05:29:36;;;;;;;7.25;4.15;;;;;;;8.34;60.85;99379.56;129678;1104;23725;-68
2021/05/04 05:32:04;;;;;;;6.40;4.30;;;;;;;8.36;61.00;99382.86;129678;1104;22520;-66
2021/05/04 05:34:32;;;;;;;8.40;5.20;;;;;;;8.41;60.88;99385.63;129705;1104;23442;-66
2021/05/04 05:37:00;;;;;;;5.30;4.20;;;;;;;8.44;60.77;99385.14;129651;1104;24785;-65
2021/05/04 05:39:28;;;;;;;10.40;4.17;;;;;;;8.46;60.69;99388.44;129687;1103;22621;-65
2021/05/04 05:41:57;;;;;;;7.47;4.30;;;;;;;8.53;61.29;99382.00;129696;1104;22627;-65
2021/05/04 05:44:25;;;;;;;5.57;3.73;;;;;;;8.59;61.43;99373.70;129671;1104;22538;-65
2021/05/04 05:46:53;;;;;;;5.60;4.25;;;;;;;8.65;60.67;99383.58;129664;1104;22567;-65
2021/05/04 05:49:22;;;;;;;6.70;3.85;;;;;;;8.66;60.47;99378.94;129763;1101;22541;-65
2021/05/04 05:51:50;;;;;;;7.77;5.13;;;;;;;8.66;60.51;99374.33;129693;1103;22981;-65
2021/05/04 05:54:17;;;;;;;8.80;4.70;;;;;;;8.72;60.37;99376.06;129698;1103;22665;-65
2021/05/04 05:56:46;;;;;;;5.60;4.00;;;;;;;8.75;61.19;99375.57;129623;1104;22611;-65
2021/05/04 05:59:13;;;;;;;6.87;4.07;;;;;;;8.80;61.33;99370.19;129733;1101;23634;-65
2021/05/04 06:01:42;;;;;;;5.40;3.80;;;;;;;8.88;60.94;99376.28;129682;1105;22595;-65
2021/05/04 06:04:10;;;;;;;5.50;4.27;;;;;;;8.94;60.17;99375.30;129701;1102;22609;-65
2021/05/04 06:06:38;;;;;;;6.83;3.50;;;;;;;8.96;59.74;99376.66;129742;1104;22549;-65
2021/05/04 06:09:06;;;;;;;6.30;3.97;;;;;;;8.99;60.59;99384.32;129631;1102;22603;-64
2021/05/04 06:11:34;;;;;;;6.95;4.45;;;;;;;9.03;59.98;99379.21;129721;1101;23302;-65
2021/05/04 06:14:02;;;;;;;9.53;3.97;;;;;;;9.07;60.56;99381.19;129694;1101;22569;-66
2021/05/04 06:16:30;;;;;;;6.40;4.10;;;;;;;9.13;59.54;99374.72;129660;1101;22650;-64
2021/05/04 06:18:59;;;;;;;8.70;4.35;;;;;;;9.19;60.43;99378.34;129633;1104;22766;-64
2021/05/04 06:21:30;;;;;;;9.70;4.00;;;;;;;9.26;59.75;99387.12;129655;1104;22585;-64
2021/05/04 06:23:58;;;;;;;5.40;3.73;;;;;;;9.32;60.33;99375.24;129669;1101;23396;-64
2021/05/04 06:26:25;;;;;;;5.30;3.73;;;;;;;9.40;59.30;99372.06;129690;1104;22538;-65
2021/05/04 06:28:54;;;;;;;6.20;3.83;;;;;;;9.47;59.62;99372.70;129690;1104;23355;-64
2021/05/04 06:31:22;;;;;;;4.93;3.80;;;;;;;9.59;59.88;99375.28;129664;1101;22714;-65
2021/05/04 06:33:49;;;;;;;5.35;3.90;;;;;;;9.71;59.51;99381.39;129702;1101;22562;-64
2021/05/04 06:36:18;;;;;;;7.40;4.30;;;;;;;9.82;59.06;99377.70;129723;1103;22644;-65
2021/05/04 06:38:46;;;;;;;4.97;3.33;;;;;;;9.87;58.25;99377.76;129698;1101;22646;-63
2021/05/04 06:41:14;;;;;;;8.08;4.10;;;;;;;9.87;57.45;99368.77;129685;1104;23462;-64
2021/05/04 06:43:42;;;;;;;6.63;3.87;;;;;;;9.84;57.27;99382.88;129642;1103;22592;-65
2021/05/04 06:46:10;;;;;;;9.10;3.57;;;;;;;9.83;56.86;99379.34;129717;1101;22586;-64
2021/05/04 06:48:39;;;;;;;10.80;3.70;;;;;;;9.81;57.40;99377.98;129715;1101;23302;-65
2021/05/04 06:51:07;;;;;;;7.90;4.13;;;;;;;9.82;57.06;99382.31;129613;1104;22595;-64
2021/05/04 06:53:36;;;;;;;6.15;4.20;;;;;;;9.83;57.73;99386.68;129694;1104;22566;-64
2021/05/04 06:56:04;;;;;;;8.17;3.50;;;;;;;9.88;58.02;99397.63;129594;1104;23497;-64
2021/05/04 06:58:32;;;;;;;5.10;3.48;;;;;;;9.96;57.50;99388.98;129733;1101;22606;-66
2021/05/04 07:01:00;;;;;;;4.98;2.85;;;;;;;9.99;57.17;99387.66;129666;1104;23398;-67
2021/05/04 07:03:28;;;;;;;5.45;3.40;;;;;;;9.99;56.88;99385.76;129741;1101;22675;-67
2021/05/04 07:05:56;;;;;;;4.73;3.38;;;;;;;10.01;56.80;99405.38;129678;1103;23173;-66
2021/05/04 07:08:24;;;;;;;6.05;3.83;;;;;;;10.02;56.00;99401.58;129761;1102;22560;-68
2021/05/04 07:10:52;;;;;;;8.23;4.43;;;;;;;9.96;56.61;99416.20;129705;1101;22539;-67
2021/05/04 07:13:20;;;;;;;4.95;3.80;;;;;;;9.91;56.63;99414.27;129716;1102;22630;-67
2021/05/04 07:15:48;;;;;;;6.50;4.23;;;;;;;9.90;56.74;99409.09;129654;1104;22611;-67
2021/05/04 07:18:17;;;;;;;7.90;3.83;;;;;;;9.88;56.75;99411.23;129728;1101;22714;-67
2021/05/04 07:20:47;;;;;;;8.98;3.70;;;;;;;9.86;56.96;99411.48;129616;1104;22566;-67
2021/05/04 07:23:15;;;;;;;5.23;3.70;;;;;;;9.85;57.04;99422.63;129674;1104;22536;-67
2021/05/04 07:25:44;;;;;;;5.30;3.47;;;;;;;9.78;56.45;99413.86;129632;1104;22687;-67
2021/05/04 07:28:13;;;;;;;4.20;3.33;;;;;;;9.72;57.24;99421.13;129684;1104;22536;-67
2021/05/04 07:30:43;;;;;;;4.50;3.43;;;;;;;9.70;57.42;99414.29;129714;1101;22546;-68
2021/05/04 07:33:10;;;;;;;4.93;3.53;;;;;;;9.71;58.08;99413.22;129686;1101;22716;-68
2021/05/04 07:35:39;;;;;;;6.37;3.60;;;;;;;9.74;57.55;99429.04;129686;1103;23219;-67
2021/05/04 07:38:08;;;;;;;9.80;5.20;;;;;;;9.77;57.62;99417.66;129742;1104;22599;-67
2021/05/04 07:40:39;;;;;;;5.27;3.10;;;;;;;9.83;57.36;99427.50;129659;1104;22606;-67
2021/05/04 07:43:07;;;;;;;6.30;3.30;;;;;;;9.89;56.38;99423.77;129682;1104;22545;-68
2021/05/04 07:45:35;;;;;;;4.87;3.30;;;;;;;9.93;56.65;99417.56;129788;1101;22524;-68
2021/05/04 07:48:05;;;;;;;8.10;4.00;;;;;;;9.95;56.49;99420.03;129656;1104;23407;-68
2021/05/04 07:50:33;;;;;;;5.77;4.20;;;;;;;9.96;56.55;99420.83;129709;1102;23497;-68
2021/05/04 07:53:01;;;;;;;7.67;3.80;;;;;;;9.99;56.57;99417.59;129668;1104;22619;-67
2021/05/04 07:55:29;;;;;;;9.27;3.50;;;;;;;10.03;56.16;99426.91;129727;1102;22543;-68
2021/05/04 07:57:58;;;;;;;7.35;3.73;;;;;;;10.06;56.55;99423.67;129695;1101;23518;-68
2021/05/04 08:00:26;;;;;;;7.90;4.83;;;;;;;10.11;56.31;99438.14;129687;1103;22568;-67
2021/05/04 08:03:01;;;;;;;7.10;3.60;;;;;;;10.16;56.24;99437.38;129716;1101;22591;-68
2021/05/04 08:05:30;;;;;;;5.78;3.65;;;;;;;10.20;56.09;99435.83;129773;1101;23411;-68
2021/05/04 08:07:58;;;;;;;7.63;3.68;;;;;;;10.22;55.81;99448.11;129675;1104;22613;-68
2021/05/04 08:10:26;;;;;;;6.53;3.93;;;;;;;10.23;55.68;99438.86;129741;1104;22551;-68
2021/05/04 08:12:54;;;;;;;8.70;3.97;;;;;;;10.22;55.33;99450.00;129691;1104;22550;-67
2021/05/04 08:15:22;;;;;;;7.75;3.70;;;;;;;10.18;55.19;99438.80;129308;1101;22602;-64
2021/05/04 08:17:59;;;;;;;10.10;4.00;;;;;;;10.12;55.29;99447.95;129671;1104;22566;-65
2021/05/04 08:20:31;;;;;;;12.15;4.60;;;;;;;10.08;55.35;99446.84;129696;1103;22608;-65
2021/05/04 08:23:03;;;;;;;4.48;3.43;;;;;;;10.03;55.58;99445.95;129695;1101;23187;-65
2021/05/04 08:25:32;;;;;;;5.10;3.90;;;;;;;9.98;54.69;99448.61;129702;1104;22550;-65
2021/05/04 08:27:59;;;;;;;6.67;3.53;;;;;;;9.90;54.85;99439.84;129683;1103;23183;-64
2021/05/04 08:30:27;;;;;;;7.43;3.60;;;;;;;9.81;55.59;99433.19;129774;1104;22555;-65
2021/05/04 08:32:57;;;;;;;4.27;3.50;;;;;;;9.80;56.10;99438.91;129679;1104;23463;-65
2021/05/04 08:35:26;;;;;;;7.43;3.60;;;;;;;9.81;56.01;99451.45;129728;1102;22575;-64
2021/05/04 08:37:54;;;;;;;7.83;3.27;;;;;;;9.79;55.45;99462.58;129606;1104;22647;-65
2021/05/04 08:40:23;;;;;;;10.97;3.67;;;;;;;9.72;55.21;99456.50;129699;1101;23331;-64
2021/05/04 08:42:51;;;;;;;5.40;3.73;;;;;;;9.66;55.12;99465.69;129711;1101;23180;-64
2021/05/04 08:45:19;;;;;;;12.20;3.97;;;;;;;9.55;55.82;99461.17;129663;1102;22537;-69
2021/05/04 08:47:48;;;;;;;7.43;3.90;;;;;;;9.48;55.62;99452.39;129697;1103;22706;-70
2021/05/04 08:50:20;;;;;;;11.30;4.20;;;;;;;9.46;56.60;99462.70;129725;1102;22549;-70
2021/05/04 08:52:49;;;;;;;6.40;3.67;;;;;;;9.45;56.54;99463.77;129723;1101;23404;-70
2021/05/04 08:55:19;;;;;;;5.73;3.90;;;;;;;9.44;56.90;99454.79;129630;1104;22985;-69
2021/05/04 08:57:46;;;;;;;7.23;4.23;;;;;;;9.47;56.57;99453.47;129714;1102;22506;-69
2021/05/04 09:00:15;;;;;;;7.90;5.33;;;;;;;9.50;56.85;99453.80;129669;1104;22540;-70
2021/05/04 09:03:05;;;;;;;4.80;3.87;;;;;;;9.52;55.79;99451.61;129705;1101;22587;-70
2021/05/04 09:11:30;;;;;;;44.60;5.93;;;;;;;9.55;54.67;99455.73;129647;1103;23210;-70
2021/05/04 09:14:19;;;;;;;8.90;4.50;;;;;;;9.51;53.52;99449.18;129708;1104;22644;-69
2021/05/04 09:22:40;;;;;;;5.03;3.20;;;;;;;9.58;54.21;99450.62;129702;1104;22578;-69
2021/05/04 09:25:36;;;;;;;13.65;3.85;;;;;;;9.64;54.22;99447.97;129695;1104;22671;-69
2021/05/04 09:28:09;;;;;;;5.57;3.57;;;;;;;9.71;54.73;99443.14;129699;1104;22762;-67
2021/05/04 09:30:37;;;;;;;6.57;2.80;;;;;;;9.76;54.41;99445.94;129684;1101;22594;-67
2021/05/04 09:33:09;;;;;;;15.40;3.60;;;;;;;9.78;54.22;99450.05;129678;1102;23449;-67
2021/05/04 09:35:37;;;;;;;4.90;3.03;;;;;;;9.79;53.50;99445.44;129702;1102;22536;-68
2021/05/04 09:38:13;;;;;;;7.87;3.53;;;;;;;9.76;53.91;99446.76;129709;1101;22684;-67
2021/05/04 09:40:42;;;;;;;5.68;3.33;;;;;;;9.75;53.74;99438.84;129628;1103;23161;-65
2021/05/04 09:43:20;;;;;;;5.95;3.33;;;;;;;9.74;54.12;99431.76;129755;1102;22646;-66
2021/05/04 09:45:50;;;;;;;5.23;3.33;;;;;;;9.75;54.56;99436.95;129692;1104;22620;-66
2021/05/04 09:48:21;;;;;;;5.27;3.10;;;;;;;9.78;54.62;99439.17;129757;1101;22674;-66
2021/05/04 09:51:36;;;;;;;8.80;4.33;;;;;;;9.82;55.03;99443.00;129680;1104;23131;-66
2021/05/04 09:56:17;;;;;;;7.67;4.60;;;;;;;9.93;55.24;99442.06;129636;1104;22575;-66
2021/05/04 09:58:46;;;;;;;23.07;8.10;;;;;;;10.00;54.33;99425.51;129690;1101;22624;-66
2021/05/04 10:01:18;;;;;;;15.37;6.10;;;;;;;10.06;54.23;99424.50;129695;1102;22680;-66
2021/05/04 10:03:48;;;;;;;14.03;6.90;;;;;;;10.09;53.74;99431.33;129678;1104;22572;-66
2021/05/04 10:06:17;;;;;;;11.80;6.07;;;;;;;10.10;53.17;99430.26;129692;1102;22604;-67
2021/05/04 10:08:46;;;;;;;13.33;5.30;;;;;;;10.08;53.13;99427.79;129660;1104;22563;-66
2021/05/04 10:11:19;;;;;;;13.07;4.43;;;;;;;10.07;53.03;99437.03;129697;1101;22679;-67
2021/05/04 10:13:55;;;;;;;23.83;8.67;;;;;;;10.06;52.56;99435.39;129683;1103;22653;-66
2021/05/04 10:16:29;;;;;;;12.53;4.97;;;;;;;10.07;52.78;99434.31;129704;1104;22672;-66
2021/05/04 10:19:01;;;;;;;17.93;8.38;;;;;;;10.07;52.51;99437.03;129706;1101;22555;-66
2021/05/04 10:21:30;;;;;;;14.20;5.20;;;;;;;10.08;52.62;99438.67;129720;1102;23148;-67
2021/05/04 10:23:58;;;;;;;12.80;4.10;;;;;;;10.11;52.13;99423.70;129704;1104;22550;-67
2021/05/04 10:26:30;;;;;;;8.10;4.43;;;;;;;10.16;52.69;99423.77;129735;1104;22555;-66
2021/05/04 10:29:05;;;;;;;15.08;4.75;;;;;;;10.20;51.88;99422.21;129656;1104;23408;-66
2021/05/04 10:31:44;;;;;;;22.20;7.15;;;;;;;10.21;52.08;99426.58;129695;1101;22570;-67
2021/05/04 10:34:25;;;;;;;12.40;5.68;;;;;;;10.23;52.00;99418.98;129702;1104;22674;-67
2021/05/04 10:36:53;;;;;;;16.17;5.33;;;;;;;10.26;51.92;99432.88;129686;1101;22551;-67
2021/05/04 10:39:43;;;;;;;18.75;5.73;;;;;;;10.34;52.06;99420.70;129687;1101;23389;-67
2021/05/04 10:42:17;;;;;;;9.18;2.85;;;;;;;10.42;51.43;99427.56;129722;1101;23270;-67
2021/05/04 10:44:58;;;;;;;4.28;2.63;;;;;;;10.46;51.05;99425.98;129656;1103;23551;-66
2021/05/04 10:47:39;;;;;;;4.13;2.38;;;;;;;10.50;51.00;99413.49;129688;1104;22550;-66
2021/05/04 10:50:12;;;;;;;6.33;2.47;;;;;;;10.53;50.85;99421.94;129707;1101;22554;-67
2021/05/04 10:52:52;;;;;;;4.90;2.75;;;;;;;10.59;51.13;99418.19;129713;1101;22583;-67
2021/05/04 10:55:22;;;;;;;6.28;3.33;;;;;;;10.67;50.83;99418.80;129719;1102;22630;-67
2021/05/04 10:58:02;;;;;;;4.48;2.25;;;;;;;10.75;50.73;99418.30;129699;1103;23422;-66
2021/05/04 11:00:52;;;;;;;13.68;3.55;;;;;;;10.77;50.45;99416.97;129646;1104;22543;-66
2021/05/04 11:03:29;;;;;;;10.45;4.45;;;;;;;10.80;50.05;99418.35;129708;1102;22713;-66
2021/05/04 11:06:14;;;;;;;8.55;4.50;;;;;;;10.80;49.67;99426.53;129728;1104;23682;-66
2021/05/04 11:08:43;;;;;;;15.83;5.85;;;;;;;10.80;49.32;99418.35;129699;1104;22662;-66
2021/05/04 11:11:41;;;;;;;19.43;3.85;;;;;;;10.82;50.05;99418.91;129768;1101;23193;-66
2021/05/04 11:17:12;;;;;;;6.70;3.17;;;;;;;11.09;49.22;99413.36;125572;1090;25685;-66
2021/05/04 11:19:42;;;;;;;8.08;2.80;;;;;;;11.18;48.97;99406.31;129945;1101;22628;-66
2021/05/04 11:22:13;;;;;;;10.78;4.75;;;;;;;11.24;48.17;99407.98;129998;1101;22557;-66
2021/05/04 11:24:46;;;;;;;10.43;3.90;;;;;;;11.26;47.83;99405.80;129962;1101;22555;-66
2021/05/04 11:27:18;;;;;;;15.33;4.20;;;;;;;11.29;47.13;99411.55;130037;1101;22633;-68
2021/05/04 11:29:47;;;;;;;10.33;4.33;;;;;;;11.31;47.05;99403.09;129710;1101;22602;-67
2021/05/04 11:32:29;;;;;;;12.78;3.90;;;;;;;11.32;47.46;99404.74;130052;1101;23696;-67
2021/05/04 11:35:00;;;;;;;14.48;3.83;;;;;;;11.39;47.63;99408.06;129968;1101;24169;-67
2021/05/04 11:37:30;;;;;;;14.73;4.63;;;;;;;11.51;46.65;99403.20;130007;1101;23112;-67
2021/05/04 11:40:13;;;;;;;14.95;5.65;;;;;;;11.63;46.42;99400.23;129966;1101;22830;-68
2021/05/04 11:42:52;;;;;;;7.05;2.60;;;;;;;11.68;45.89;99403.81;130011;1101;22607;-68
2021/05/04 11:45:21;;;;;;;10.53;4.85;;;;;;;11.70;45.88;99395.33;129926;1101;22684;-67
2021/05/04 11:47:51;;;;;;;13.08;5.10;;;;;;;11.70;45.42;99403.52;130027;1101;22637;-68
2021/05/04 11:50:28;;;;;;;13.98;6.08;;;;;;;11.66;45.62;99395.07;129949;1101;22549;-67
2021/05/04 11:53:00;;;;;;;18.83;7.15;;;;;;;11.64;45.92;99380.87;130004;1101;22587;-67
2021/05/04 11:55:33;;;;;;;4.00;2.10;;;;;;;11.69;45.79;99389.05;129411;1101;22593;-67
2021/05/04 11:58:05;;;;;;;13.45;5.15;;;;;;;11.77;44.92;99395.13;129998;1101;23122;-69